createdAt,value
2018-01-26T00:00:28.578Z,6.07
2018-01-26T00:02:56.392Z,6.07
2018-01-26T00:05:24.171Z,6.06
2018-01-26T00:07:52.098Z,6.05
2018-01-26T00:10:19.860Z,6.05
2018-01-26T00:12:47.686Z,6.02
2018-01-26T00:22:51.134Z,5.93
2018-01-26T00:25:18.898Z,5.91
2018-01-26T00:27:46.809Z,5.89
2018-01-26T00:30:14.698Z,5.88
2018-01-26T00:32:42.485Z,5.87
2018-01-26T00:35:10.286Z,5.88
2018-01-26T00:37:38.071Z,5.89
2018-01-26T00:40:05.869Z,5.89
2018-01-26T00:42:33.678Z,5.86
2018-01-26T00:45:01.581Z,5.84
2018-01-26T00:47:29.452Z,5.83
2018-01-26T00:49:57.374Z,5.85
2018-01-26T00:52:25.121Z,5.85
2018-01-26T00:54:53.020Z,5.81
2018-01-26T00:57:20.775Z,5.73
2018-01-26T00:59:48.717Z,5.68
2018-01-26T01:02:16.515Z,5.69
2018-01-26T01:04:44.442Z,5.70
2018-01-26T01:07:12.323Z,5.71
2018-01-26T01:09:40.164Z,5.73
2018-01-26T01:12:08.126Z,5.74
2018-01-26T01:14:35.928Z,5.80
2018-01-26T01:17:03.699Z,5.83
2018-01-26T01:19:31.637Z,5.86
2018-01-26T01:21:59.510Z,5.89
2018-01-26T01:24:27.318Z,5.88
2018-01-26T01:26:55.076Z,5.84
2018-01-26T01:29:22.873Z,5.80
2018-01-26T01:31:50.674Z,5.80
2018-01-26T01:34:18.573Z,5.82
2018-01-26T01:36:46.451Z,5.85
2018-01-26T01:39:14.341Z,5.83
2018-01-26T01:41:42.110Z,5.84
2018-01-26T01:44:10.003Z,5.84
2018-01-26T01:46:37.775Z,5.85
2018-01-26T01:49:16.473Z,5.86
2018-01-26T01:51:44.287Z,5.86
2018-01-26T01:54:12.201Z,5.85
2018-01-26T01:56:39.977Z,5.83
2018-01-26T01:59:07.791Z,5.77
2018-01-26T02:01:35.548Z,5.75
2018-01-26T02:04:03.348Z,5.72
2018-01-26T02:06:31.098Z,5.71
2018-01-26T02:08:58.951Z,5.71
2018-01-26T02:11:26.695Z,5.70
2018-01-26T02:13:54.488Z,5.73
2018-01-26T02:16:22.232Z,5.75
2018-01-26T02:18:50.150Z,5.76
2018-01-26T02:21:18.038Z,5.79
2018-01-26T02:23:54.845Z,5.82
2018-01-26T02:26:22.620Z,5.83
2018-01-26T02:28:50.398Z,5.83
2018-01-26T02:31:18.249Z,5.82
2018-01-26T02:33:46.138Z,5.80
2018-01-26T02:36:14.064Z,5.77
2018-01-26T02:38:41.828Z,5.76
2018-01-26T02:41:09.623Z,5.75
2018-01-26T02:43:37.383Z,5.76
2018-01-26T02:46:05.210Z,5.78
2018-01-26T02:48:33.082Z,5.80
2018-01-26T02:51:00.901Z,5.82
2018-01-26T02:53:28.778Z,5.80
2018-01-26T02:55:56.677Z,5.78
2018-01-26T02:58:24.432Z,5.73
2018-01-26T03:00:52.337Z,5.72
2018-01-26T03:03:20.086Z,5.76
2018-01-26T03:05:47.990Z,5.80
2018-01-26T03:08:15.840Z,5.85
2018-01-26T03:10:43.655Z,5.90
2018-01-26T03:13:11.493Z,5.93
2018-01-26T03:15:39.310Z,5.95
2018-01-26T03:18:07.089Z,5.96
2018-01-26T03:20:34.912Z,5.98
2018-01-26T03:23:02.666Z,5.98
2018-01-26T03:25:30.571Z,5.97
2018-01-26T03:27:58.312Z,5.95
2018-01-26T03:30:26.844Z,5.96
2018-01-26T03:32:54.611Z,5.99
2018-01-26T03:35:22.507Z,6.02
2018-01-26T03:37:50.369Z,6.02
2018-01-26T03:40:18.152Z,6.05
2018-01-26T03:42:45.997Z,6.08
2018-01-26T03:45:13.802Z,6.10
2018-01-26T03:47:41.588Z,6.11
2018-01-26T03:50:09.526Z,6.10
2018-01-26T03:52:41.298Z,6.08
2018-01-26T03:55:09.207Z,6.06
2018-01-26T03:57:36.966Z,6.08
2018-01-26T04:00:04.790Z,6.09
2018-01-26T04:02:32.680Z,6.12
2018-01-26T04:05:00.451Z,6.13
2018-01-26T04:07:28.348Z,6.10
2018-01-26T04:09:56.203Z,6.08
2018-01-26T04:12:24.033Z,6.08
2018-01-26T04:14:51.895Z,6.08
2018-01-26T04:17:19.672Z,6.07
2018-01-26T04:19:47.438Z,6.07
2018-01-26T04:22:15.237Z,6.08
2018-01-26T04:24:43.027Z,6.08
2018-01-26T04:27:10.930Z,6.09
2018-01-26T04:29:38.734Z,6.08
2018-01-26T04:32:06.580Z,6.08
2018-01-26T04:34:34.358Z,6.06
2018-01-26T04:37:02.263Z,6.04
2018-01-26T04:39:30.014Z,6.01
2018-01-26T04:41:57.789Z,5.98
2018-01-26T04:44:25.543Z,5.95
2018-01-26T04:46:53.407Z,5.93
2018-01-26T04:49:21.188Z,5.89
2018-01-26T04:51:48.999Z,5.88
2018-01-26T04:54:16.752Z,5.88
2018-01-26T04:56:44.689Z,5.86
2018-01-26T04:59:12.545Z,5.85
2018-01-26T05:01:40.507Z,5.85
2018-01-26T05:04:08.257Z,5.84
2018-01-26T05:06:36.092Z,5.82
2018-01-26T05:09:03.965Z,5.81
2018-01-26T05:11:31.767Z,5.79
2018-01-26T05:13:59.534Z,5.78
2018-01-26T05:16:27.358Z,5.78
2018-01-26T05:18:55.123Z,5.79
2018-01-26T05:21:22.937Z,5.78
2018-01-26T05:23:50.818Z,5.78
2018-01-26T05:26:18.715Z,5.78
2018-01-26T05:28:46.473Z,5.78
2018-01-26T05:31:14.447Z,5.78
2018-01-26T05:33:42.233Z,5.77
2018-01-26T05:36:10.073Z,5.76
2018-01-26T05:38:37.869Z,5.75
2018-01-26T05:41:05.781Z,5.72
2018-01-26T05:43:33.539Z,5.68
2018-01-26T05:46:01.286Z,5.66
2018-01-26T05:48:29.101Z,5.65
2018-01-26T05:50:56.875Z,5.65
2018-01-26T05:53:24.838Z,5.65
2018-01-26T05:55:52.714Z,5.63
2018-01-26T05:58:20.531Z,5.64
2018-01-26T06:00:48.406Z,5.59
2018-01-26T06:03:16.246Z,5.57
2018-01-26T06:05:43.997Z,5.60
2018-01-26T06:08:11.914Z,5.62
2018-01-26T06:10:39.728Z,5.62
2018-01-26T06:13:07.581Z,5.61
2018-01-26T06:15:35.434Z,5.55
2018-01-26T06:18:03.311Z,5.51
2018-01-26T06:20:31.095Z,5.49
2018-01-26T06:22:58.924Z,5.47
2018-01-26T06:25:26.738Z,5.48
2018-01-26T06:27:54.608Z,5.49
2018-01-26T06:30:22.449Z,5.49
2018-01-26T06:32:50.286Z,5.42
2018-01-26T06:35:18.066Z,5.38
2018-01-26T06:37:45.960Z,5.38
2018-01-26T06:40:13.850Z,5.40
2018-01-26T06:42:41.788Z,5.43
2018-01-26T06:45:09.665Z,5.45
2018-01-26T06:47:37.504Z,5.45
2018-01-26T06:50:05.392Z,5.45
2018-01-26T06:52:33.307Z,5.44
2018-01-26T06:55:01.189Z,5.46
2018-01-26T06:57:30.056Z,5.44
2018-01-26T06:59:57.930Z,5.41
2018-01-26T07:02:25.672Z,5.39
2018-01-26T07:04:53.467Z,5.39
2018-01-26T07:07:21.233Z,5.38
2018-01-26T07:09:49.034Z,5.37
2018-01-26T07:12:16.898Z,5.35
2018-01-26T07:14:44.671Z,5.36
2018-01-26T07:17:12.413Z,5.33
2018-01-26T07:19:40.240Z,5.29
2018-01-26T07:22:08.013Z,5.25
2018-01-26T07:24:35.813Z,5.23
2018-01-26T07:27:03.554Z,5.25
2018-01-26T07:29:31.350Z,5.26
2018-01-26T07:31:59.121Z,5.26
2018-01-26T07:34:26.967Z,5.25
2018-01-26T07:36:54.734Z,5.22
2018-01-26T07:39:22.541Z,5.19
2018-01-26T07:41:50.285Z,5.20
2018-01-26T07:44:18.089Z,5.21
2018-01-26T07:46:45.865Z,5.23
2018-01-26T07:49:13.674Z,5.26
2018-01-26T07:51:41.408Z,5.28
2018-01-26T07:54:09.240Z,5.25
2018-01-26T07:56:36.963Z,5.21
2018-01-26T07:59:04.764Z,5.16
2018-01-26T08:01:32.518Z,5.15
2018-01-26T08:04:00.327Z,5.20
2018-01-26T08:06:28.102Z,5.34
2018-01-26T08:08:55.955Z,5.42
2018-01-26T08:11:23.739Z,5.49
2018-01-26T08:13:51.528Z,5.54
2018-01-26T08:16:19.296Z,5.57
2018-01-26T08:18:47.078Z,5.52
2018-01-26T08:21:14.815Z,5.51
2018-01-26T08:23:42.585Z,5.55
2018-01-26T08:26:10.340Z,5.61
2018-01-26T08:28:38.142Z,5.64
2018-01-26T08:31:05.899Z,5.66
2018-01-26T08:33:33.750Z,5.73
2018-01-26T08:36:01.523Z,5.80
2018-01-26T08:38:29.434Z,5.88
2018-01-26T08:40:57.313Z,5.95
2018-01-26T08:43:25.312Z,6.04
2018-01-26T08:45:53.221Z,6.10
2018-01-26T08:48:21.138Z,6.14
2018-01-26T08:50:48.979Z,6.19
2018-01-26T08:53:16.775Z,6.31
2018-01-26T08:55:44.763Z,6.33
2018-01-26T08:58:12.638Z,6.34
2018-01-26T09:00:40.582Z,6.33
2018-01-26T09:03:08.366Z,6.33
2018-01-26T09:05:36.242Z,6.35
2018-01-26T09:08:04.063Z,6.38
2018-01-26T09:10:31.985Z,6.39
2018-01-26T09:12:59.924Z,6.42
2018-01-26T09:15:27.742Z,6.44
2018-01-26T09:17:55.502Z,6.50
2018-01-26T09:20:23.366Z,6.56
2018-01-26T09:22:51.197Z,6.60
2018-01-26T09:25:19.386Z,6.69
2018-01-26T09:27:47.161Z,6.73
2018-01-26T09:30:14.982Z,6.79
2018-01-26T09:32:42.930Z,6.80
2018-01-26T09:35:10.880Z,6.82
2018-01-26T09:37:38.773Z,6.85
2018-01-26T09:40:06.699Z,6.89
2018-01-26T09:42:34.495Z,6.93
2018-01-26T09:45:02.443Z,6.99
2018-01-26T09:47:30.335Z,7.01
2018-01-26T09:49:58.265Z,7.00
2018-01-26T09:52:26.190Z,6.98
2018-01-26T09:54:54.145Z,6.91
2018-01-26T09:57:21.941Z,6.87
2018-01-26T09:59:49.757Z,6.90
2018-01-26T10:02:17.511Z,6.96
2018-01-26T10:04:45.448Z,7.01
2018-01-26T10:07:13.237Z,7.03
2018-01-26T10:09:41.186Z,7.05
2018-01-26T10:12:08.952Z,7.06
2018-01-26T10:14:36.782Z,7.10
2018-01-26T10:17:04.596Z,7.13
2018-01-26T10:19:32.538Z,7.11
2018-01-26T10:22:00.379Z,7.05
2018-01-26T10:24:28.308Z,7.04
2018-01-26T10:26:56.196Z,7.06
2018-01-26T10:29:24.071Z,7.06
2018-01-26T10:31:52.036Z,7.07
2018-01-26T10:34:19.821Z,7.08
2018-01-26T10:36:47.655Z,7.11
2018-01-26T10:39:15.518Z,7.13
2018-01-26T10:41:43.441Z,7.18
2018-01-26T10:44:11.305Z,7.27
2018-01-26T10:46:39.235Z,7.39
2018-01-26T10:49:07.095Z,7.51
2018-01-26T10:51:35.022Z,7.63
2018-01-26T10:54:02.923Z,7.77
2018-01-26T10:56:30.841Z,7.89
2018-01-26T10:58:58.730Z,8.03
2018-01-26T11:01:26.705Z,8.20
2018-01-26T11:03:54.669Z,8.33
2018-01-26T11:06:22.628Z,8.42
2018-01-26T11:08:50.548Z,8.47
2018-01-26T11:11:18.498Z,8.53
2018-01-26T11:13:46.459Z,8.63
2018-01-26T11:16:16.141Z,8.72
2018-01-26T11:18:44.005Z,8.80
2018-01-26T11:21:11.814Z,8.88
2018-01-26T11:23:39.620Z,8.96
2018-01-26T11:26:07.455Z,8.91
2018-01-26T11:28:35.281Z,8.88
2018-01-26T11:31:03.129Z,8.87
2018-01-26T11:33:30.940Z,8.89
2018-01-26T11:35:58.769Z,8.96
2018-01-26T11:38:26.540Z,9.05
2018-01-26T11:40:54.327Z,9.07
2018-01-26T11:43:22.106Z,8.98
2018-01-26T11:45:49.946Z,8.95
2018-01-26T11:48:17.704Z,8.88
2018-01-26T11:50:45.518Z,8.74
2018-01-26T11:53:13.296Z,8.65
2018-01-26T11:55:41.166Z,8.63
2018-01-26T11:58:08.921Z,8.60
2018-01-26T12:00:36.748Z,8.55
2018-01-26T12:03:04.505Z,8.59
2018-01-26T12:05:32.348Z,8.65
2018-01-26T12:08:00.131Z,8.70
2018-01-26T12:10:27.976Z,8.70
2018-01-26T12:12:55.799Z,8.66
2018-01-26T12:15:23.615Z,8.65
2018-01-26T12:17:51.450Z,8.62
2018-01-26T12:20:19.222Z,8.62
2018-01-26T12:22:47.160Z,8.64
2018-01-26T12:25:14.990Z,8.61
2018-01-26T12:27:42.879Z,8.57
2018-01-26T12:30:10.728Z,8.54
2018-01-26T12:32:38.586Z,8.50
2018-01-26T12:35:06.390Z,8.40
2018-01-26T12:37:34.206Z,8.34
2018-01-26T12:40:02.015Z,8.30
2018-01-26T12:42:29.824Z,8.25
2018-01-26T12:44:57.745Z,8.22
2018-01-26T12:47:25.546Z,8.18
2018-01-26T12:49:53.309Z,8.23
2018-01-26T12:52:21.142Z,8.20
2018-01-26T12:54:48.878Z,8.19
2018-01-26T12:57:16.731Z,8.17
2018-01-26T12:59:44.517Z,8.17
2018-01-26T13:02:12.344Z,8.22
2018-01-26T13:04:40.110Z,8.25
2018-01-26T13:07:07.914Z,8.38
2018-01-26T13:09:35.678Z,8.48
2018-01-26T13:12:03.541Z,8.52
2018-01-26T13:14:31.335Z,8.51
2018-01-26T13:16:59.146Z,8.51
2018-01-26T13:19:26.930Z,8.47
2018-01-26T13:21:54.780Z,8.44
2018-01-26T13:24:22.555Z,8.39
2018-01-26T13:26:50.361Z,8.36
2018-01-26T13:29:18.199Z,8.34
2018-01-26T13:31:46.020Z,8.32
2018-01-26T13:34:13.814Z,8.33
2018-01-26T13:36:41.608Z,8.29
2018-01-26T13:39:09.374Z,8.29
2018-01-26T13:41:37.181Z,8.23
2018-01-26T13:44:04.942Z,8.22
2018-01-26T13:46:32.769Z,8.22
2018-01-26T13:49:00.523Z,8.23
2018-01-26T13:51:29.271Z,8.23
2018-01-26T13:53:57.022Z,8.20
2018-01-26T13:56:24.836Z,8.20
2018-01-26T13:58:52.636Z,8.24
2018-01-26T14:01:20.393Z,8.28
2018-01-26T14:03:48.233Z,8.32
2018-01-26T14:06:16.007Z,8.32
2018-01-26T14:08:43.808Z,8.33
2018-01-26T14:11:11.592Z,8.33
2018-01-26T14:13:39.397Z,8.33
2018-01-26T14:16:07.206Z,8.30
2018-01-26T14:18:35.077Z,8.24
2018-01-26T14:21:02.839Z,8.22
2018-01-26T14:23:30.662Z,8.20
2018-01-26T14:25:58.425Z,8.17
2018-01-26T14:28:26.286Z,8.15
2018-01-26T14:30:54.039Z,8.16
2018-01-26T14:33:21.850Z,8.13
2018-01-26T14:35:49.605Z,8.12
2018-01-26T14:38:17.402Z,8.10
2018-01-26T14:40:45.184Z,8.06
2018-01-26T14:43:12.991Z,8.02
2018-01-26T14:45:40.760Z,7.96
2018-01-26T14:48:08.774Z,7.92
2018-01-26T14:50:36.547Z,7.90
2018-01-26T14:53:04.374Z,7.89
2018-01-26T14:55:32.201Z,7.90
2018-01-26T14:58:00.017Z,7.89
2018-01-26T15:00:27.816Z,7.89
2018-01-26T15:02:55.625Z,7.88
2018-01-26T15:05:23.404Z,7.85
2018-01-26T15:07:51.210Z,7.81
2018-01-26T15:10:18.989Z,7.78
2018-01-26T15:12:46.819Z,7.74
2018-01-26T15:15:14.654Z,7.72
2018-01-26T15:17:42.483Z,7.69
2018-01-26T15:20:10.308Z,7.67
2018-01-26T15:22:38.114Z,7.65
2018-01-26T15:25:05.943Z,7.63
2018-01-26T15:27:33.790Z,7.59
2018-01-26T15:30:01.566Z,7.57
2018-01-26T15:32:29.459Z,7.55
2018-01-26T15:34:57.340Z,7.52
2018-01-26T15:37:25.323Z,7.47
2018-01-26T15:39:53.097Z,7.41
2018-01-26T15:42:20.908Z,7.33
2018-01-26T15:44:48.742Z,7.22
2018-01-26T15:47:16.534Z,7.11
2018-01-26T15:49:44.348Z,7.00
2018-01-26T15:52:12.122Z,6.90
2018-01-26T15:54:39.992Z,6.95
2018-01-26T15:57:07.755Z,6.83
2018-01-26T15:59:35.564Z,6.82
2018-01-26T16:02:04.380Z,6.83
2018-01-26T16:04:32.193Z,6.87
2018-01-26T16:06:59.997Z,6.90
2018-01-26T16:09:27.818Z,6.93
2018-01-26T16:11:55.656Z,6.99
2018-01-26T16:14:23.487Z,6.96
2018-01-26T16:16:51.243Z,6.99
2018-01-26T16:19:19.053Z,7.04
2018-01-26T16:21:46.826Z,7.18
2018-01-26T16:24:14.643Z,7.19
2018-01-26T16:26:42.410Z,7.18
2018-01-26T16:29:10.212Z,7.19
2018-01-26T16:31:37.975Z,7.21
2018-01-26T16:34:05.836Z,7.31
2018-01-26T16:36:33.615Z,7.28
2018-01-26T16:39:01.419Z,7.27
2018-01-26T16:41:29.178Z,7.25
2018-01-26T16:43:57.024Z,7.25
2018-01-26T16:46:24.807Z,7.22
2018-01-26T16:48:52.691Z,7.19
2018-01-26T16:51:20.494Z,7.16
2018-01-26T16:53:48.297Z,7.19
2018-01-26T16:56:16.057Z,7.14
2018-01-26T16:58:43.867Z,7.11
2018-01-26T17:01:11.640Z,7.07
2018-01-26T17:03:43.307Z,7.07
2018-01-26T17:06:13.011Z,7.10
2018-01-26T17:08:40.845Z,7.09
2018-01-26T17:11:08.591Z,7.10
2018-01-26T17:13:36.390Z,7.08
2018-01-26T17:16:04.150Z,7.09
2018-01-26T17:18:31.988Z,7.09
2018-01-26T17:20:59.776Z,7.07
2018-01-26T17:23:27.587Z,7.04
2018-01-26T17:25:55.361Z,6.99
2018-01-26T17:28:23.126Z,6.97
2018-01-26T17:30:50.950Z,6.96
2018-01-26T17:33:18.759Z,6.96
2018-01-26T17:35:46.579Z,6.94
2018-01-26T17:38:14.378Z,6.93
2018-01-26T17:40:42.250Z,6.97
2018-01-26T17:43:10.043Z,7.00
2018-01-26T17:45:37.855Z,7.06
2018-01-26T17:48:06.334Z,7.22
2018-01-26T17:50:34.166Z,7.20
2018-01-26T17:53:01.991Z,7.20
2018-01-26T17:55:29.837Z,7.16
2018-01-26T17:57:57.659Z,7.17
2018-01-26T18:00:25.827Z,7.15
2018-01-26T18:02:53.649Z,7.13
2018-01-26T18:05:21.734Z,7.08
2018-01-26T18:07:49.596Z,7.03
2018-01-26T18:10:17.448Z,6.98
2018-01-26T18:12:45.255Z,6.94
2018-01-26T18:15:13.132Z,6.93
2018-01-26T18:17:40.932Z,6.90
2018-01-26T18:20:08.752Z,6.86
2018-01-26T18:22:36.518Z,6.83
2018-01-26T18:25:07.233Z,6.76
2018-01-26T18:27:35.028Z,6.70
2018-01-26T18:30:02.885Z,6.63
2018-01-26T18:32:30.675Z,6.57
2018-01-26T18:34:58.503Z,6.52
2018-01-26T18:37:26.304Z,6.46
2018-01-26T18:39:54.133Z,6.43
2018-01-26T18:42:21.903Z,6.38
2018-01-26T18:44:50.017Z,6.33
2018-01-26T18:47:17.777Z,6.34
2018-01-26T18:49:45.615Z,6.29
2018-01-26T18:52:13.395Z,6.26
2018-01-26T18:54:41.213Z,6.22
2018-01-26T18:57:08.992Z,6.21
2018-01-26T18:59:36.829Z,6.21
2018-01-26T19:02:04.607Z,6.22
2018-01-26T19:04:32.447Z,6.24
2018-01-26T19:07:00.234Z,6.25
2018-01-26T19:09:28.064Z,6.27
2018-01-26T19:11:55.844Z,6.32
2018-01-26T19:14:23.761Z,6.34
2018-01-26T19:16:51.676Z,6.36
2018-01-26T19:19:19.545Z,6.39
2018-01-26T19:21:47.490Z,6.40
2018-01-26T19:24:15.262Z,6.46
2018-01-26T19:26:43.053Z,6.48
2018-01-26T19:29:10.818Z,6.51
2018-01-26T19:31:38.835Z,6.55
2018-01-26T19:34:06.755Z,6.51
2018-01-26T19:36:34.685Z,6.51
2018-01-26T19:39:02.645Z,6.58
2018-01-26T19:41:30.611Z,6.62
2018-01-26T19:43:58.486Z,6.59
2018-01-26T19:46:26.435Z,6.54
2018-01-26T19:48:54.355Z,6.53
2018-01-26T19:51:22.528Z,6.52
2018-01-26T19:53:50.431Z,6.53
2018-01-26T19:56:18.447Z,6.55
2018-01-26T19:58:46.282Z,6.58
2018-01-26T20:01:14.242Z,6.57
2018-01-26T20:03:47.926Z,6.57
2018-01-26T20:06:33.425Z,6.62
2018-01-26T20:09:05.276Z,6.64
2018-01-26T20:11:33.205Z,6.60
2018-01-26T20:14:01.050Z,6.73
2018-01-26T20:16:29.060Z,6.61
2018-01-26T20:18:56.962Z,6.59
2018-01-26T20:21:24.906Z,6.60
2018-01-26T20:23:52.804Z,6.58
2018-01-26T20:26:20.868Z,6.58
2018-01-26T20:28:48.637Z,6.61
2018-01-26T20:31:16.613Z,6.58
2018-01-26T20:33:44.437Z,6.55
2018-01-26T20:36:12.350Z,6.66
2018-01-26T20:38:40.242Z,6.66
2018-01-26T20:41:08.157Z,6.60
2018-01-26T20:43:36.036Z,6.67
2018-01-26T20:46:03.998Z,6.65
2018-01-26T20:48:31.978Z,6.65
2018-01-26T20:50:59.901Z,6.72
2018-01-26T20:53:27.821Z,6.69
2018-01-26T20:55:55.736Z,6.72
2018-01-26T20:58:23.557Z,6.69
2018-01-26T21:00:51.519Z,6.65
2018-01-26T21:03:19.365Z,6.66
2018-01-26T21:05:47.203Z,6.61
2018-01-26T21:08:15.096Z,6.63
2018-01-26T21:10:43.021Z,6.62
2018-01-26T21:13:10.987Z,6.71
2018-01-26T21:15:38.807Z,6.66
2018-01-26T21:18:06.666Z,6.61
2018-01-26T21:20:34.500Z,6.57
2018-01-26T21:23:02.347Z,6.55
2018-01-26T21:25:30.228Z,6.53
2018-01-26T21:27:58.067Z,6.53
2018-01-26T21:30:25.874Z,6.54
2018-01-26T21:32:53.691Z,6.54
2018-01-26T21:35:21.512Z,6.54
2018-01-26T21:37:49.336Z,6.52
2018-01-26T21:40:17.145Z,6.46
2018-01-26T21:42:44.999Z,6.40
2018-01-26T21:45:12.856Z,6.35
2018-01-26T21:47:40.796Z,6.32
2018-01-26T21:50:08.587Z,6.27
2018-01-26T21:52:36.409Z,6.22
2018-01-26T21:55:04.231Z,6.15
2018-01-26T21:57:32.866Z,6.10
2018-01-26T22:00:00.731Z,6.04
2018-01-26T22:02:28.570Z,5.99
2018-01-26T22:05:02.568Z,5.91
2018-01-26T22:07:35.785Z,5.90
2018-01-26T22:10:03.603Z,5.85
2018-01-26T22:12:31.427Z,5.84
2018-01-26T22:14:59.232Z,5.82
2018-01-26T22:17:27.067Z,5.82
2018-01-26T22:19:54.835Z,5.83
2018-01-26T22:22:22.657Z,5.83
2018-01-26T22:24:50.435Z,5.85
2018-01-26T22:27:18.273Z,5.84
2018-01-26T22:29:46.150Z,5.79
2018-01-26T22:32:14.131Z,5.77
2018-01-26T22:34:41.906Z,5.78
2018-01-26T22:37:09.744Z,5.77
2018-01-26T22:39:37.627Z,5.74
2018-01-26T22:42:05.576Z,5.68
2018-01-26T22:44:33.580Z,5.66
2018-01-26T22:47:01.415Z,5.66
2018-01-26T22:49:29.363Z,5.79
2018-01-26T22:51:57.201Z,5.88
2018-01-26T22:54:25.007Z,5.90
2018-01-26T22:56:52.851Z,5.94
2018-01-26T22:59:20.739Z,5.92
2018-01-26T23:01:48.847Z,5.94
2018-01-26T23:04:16.728Z,5.91
2018-01-26T23:06:44.642Z,5.87
2018-01-26T23:09:12.436Z,5.85
2018-01-26T23:11:40.380Z,5.90
2018-01-26T23:14:08.278Z,5.90
2018-01-26T23:16:36.161Z,5.88
2018-01-26T23:19:03.994Z,5.86
2018-01-26T23:21:31.763Z,5.85
2018-01-26T23:23:59.752Z,5.84
2018-01-26T23:26:27.522Z,5.84
2018-01-26T23:28:55.454Z,5.84
2018-01-26T23:31:23.386Z,5.86
2018-01-26T23:33:51.311Z,5.87
2018-01-26T23:36:19.215Z,5.88
2018-01-26T23:38:47.127Z,5.90
2018-01-26T23:41:15.014Z,5.95
2018-01-26T23:43:42.947Z,5.99
2018-01-26T23:46:10.720Z,6.03
2018-01-26T23:48:38.651Z,6.03
2018-01-26T23:51:06.584Z,6.03
2018-01-26T23:53:34.512Z,6.00
2018-01-26T23:56:02.376Z,5.97
2018-01-26T23:58:30.494Z,5.93
